createdAt,value
2023-03-26T00:01:33.707Z,98480.94
2023-03-26T00:04:01.165Z,98484.75
2023-03-26T00:06:31.821Z,98493.94
2023-03-26T00:08:58.982Z,98498.94
2023-03-26T00:11:29.001Z,98506.94
2023-03-26T00:13:57.781Z,98488.22
2023-03-26T00:16:29.100Z,98502.97
2023-03-26T00:18:57.700Z,98485.44
2023-03-26T00:21:28.007Z,98485.75
2023-03-26T00:24:06.101Z,98501.63
2023-03-26T00:26:38.416Z,98497.13
2023-03-26T00:29:06.732Z,98483.41
2023-03-26T00:31:34.541Z,98495.09
2023-03-26T00:34:03.760Z,98482.75
2023-03-26T00:36:30.800Z,98487.63
2023-03-26T00:38:57.588Z,98504.69
2023-03-26T00:41:26.839Z,98499.78
2023-03-26T00:43:58.006Z,98501.72
2023-03-26T00:46:26.789Z,98505.66
2023-03-26T00:48:53.709Z,98491.59
2023-03-26T00:51:21.750Z,98503.72
2023-03-26T00:53:50.427Z,98461.56
2023-03-26T00:56:17.864Z,98486.09
2023-03-26T00:58:46.080Z,98488.97
2023-03-26T01:01:17.318Z,98473.06
2023-03-26T01:03:57.127Z,98463.88
2023-03-26T01:06:36.029Z,98456.78
2023-03-26T01:09:14.353Z,98457.38
2023-03-26T01:11:41.437Z,98461.88
2023-03-26T01:14:19.183Z,98440.19
2023-03-26T01:16:54.811Z,98452.06
2023-03-26T01:19:44.668Z,98449.03
2023-03-26T01:22:17.485Z,98439.78
2023-03-26T01:24:46.152Z,98434.34
2023-03-26T01:27:36.002Z,98436.72
2023-03-26T01:30:42.284Z,98428.84
2023-03-26T01:33:36.529Z,98407.66
2023-03-26T01:36:16.358Z,98408.00
2023-03-26T01:39:38.936Z,98406.16
2023-03-26T01:42:21.803Z,98405.56
2023-03-26T01:45:00.108Z,98396.75
2023-03-26T01:47:27.869Z,98380.38
2023-03-26T01:49:54.724Z,98392.97
2023-03-26T01:52:26.073Z,98396.66
2023-03-26T01:54:57.564Z,98372.69
2023-03-26T01:57:57.902Z,98386.31
2023-03-26T02:00:37.509Z,98376.44
2023-03-26T02:03:20.338Z,98373.09
2023-03-26T02:06:07.790Z,98375.94
2023-03-26T02:08:41.258Z,98363.22
2023-03-26T02:11:13.208Z,98363.38
2023-03-26T02:13:44.003Z,98357.69
2023-03-26T02:16:16.423Z,98346.41
2023-03-26T02:18:45.718Z,98326.88
2023-03-26T02:21:15.407Z,98339.03
2023-03-26T02:23:46.613Z,98327.22
2023-03-26T02:26:18.061Z,98329.69
2023-03-26T02:28:45.430Z,98326.44
2023-03-26T02:31:13.859Z,98321.09
2023-03-26T02:33:40.944Z,98310.16
2023-03-26T02:36:08.650Z,98314.91
2023-03-26T02:38:35.692Z,98307.78
2023-03-26T02:41:03.662Z,98318.69
2023-03-26T02:43:30.710Z,98307.78
2023-03-26T02:45:58.317Z,98310.16
2023-03-26T02:48:25.381Z,98291.91
2023-03-26T02:50:54.284Z,98309.31
2023-03-26T02:53:24.286Z,98299.44
2023-03-26T02:55:51.194Z,98280.91
2023-03-26T02:58:18.099Z,98288.66
2023-03-26T03:00:47.162Z,98304.44
2023-03-26T03:03:17.158Z,98297.75
2023-03-26T03:05:44.270Z,98277.75
2023-03-26T03:08:11.211Z,98288.25
2023-03-26T03:10:39.478Z,98282.22
2023-03-26T03:13:07.704Z,98278.88
2023-03-26T03:15:35.107Z,98242.78
2023-03-26T03:18:02.648Z,98246.97
2023-03-26T03:20:30.388Z,98258.38
2023-03-26T03:22:57.293Z,98253.09
2023-03-26T03:25:25.920Z,98236.44
2023-03-26T03:27:53.898Z,98224.53
2023-03-26T03:30:21.033Z,98242.94
2023-03-26T03:32:48.201Z,98193.16
2023-03-26T03:35:15.203Z,98236.91
2023-03-26T03:37:42.246Z,98208.91
2023-03-26T03:40:10.915Z,98199.56
2023-03-26T03:42:38.510Z,98185.50
2023-03-26T03:45:06.592Z,98217.88
2023-03-26T03:47:33.418Z,98196.16
2023-03-26T03:50:00.306Z,98210.94
2023-03-26T03:52:28.129Z,98174.72
2023-03-26T03:54:57.638Z,98201.34
2023-03-26T03:57:24.437Z,98195.13
2023-03-26T03:59:51.233Z,98200.88
2023-03-26T04:02:26.614Z,98179.78
2023-03-26T04:04:54.341Z,98144.56
2023-03-26T04:07:21.218Z,98183.69
2023-03-26T04:09:48.047Z,98195.59
2023-03-26T04:12:15.377Z,98185.53
2023-03-26T04:14:42.714Z,98181.25
2023-03-26T04:17:09.625Z,98144.63
2023-03-26T04:19:37.405Z,98157.22
2023-03-26T04:22:04.235Z,98163.34
2023-03-26T04:24:38.294Z,98160.75
2023-03-26T04:27:08.685Z,98157.25
2023-03-26T04:29:43.126Z,98148.75
2023-03-26T04:32:22.702Z,98145.50
2023-03-26T04:34:49.580Z,98132.56
2023-03-26T04:37:34.289Z,98096.50
2023-03-26T04:40:10.483Z,98122.22
2023-03-26T04:42:41.583Z,98105.41
2023-03-26T04:45:10.913Z,98117.03
2023-03-26T04:47:39.589Z,98126.19
2023-03-26T04:50:09.408Z,98116.00
2023-03-26T04:52:37.501Z,98114.34
2023-03-26T04:55:16.895Z,98092.56
2023-03-26T04:57:46.516Z,98100.88
2023-03-26T05:00:16.291Z,98090.53
2023-03-26T05:02:43.627Z,98074.44
2023-03-26T05:05:11.797Z,98072.03
2023-03-26T05:07:38.673Z,98096.53
2023-03-26T05:10:06.666Z,98084.44
2023-03-26T05:12:33.581Z,98095.97
2023-03-26T05:15:00.796Z,98090.72
2023-03-26T05:17:30.984Z,98091.53
2023-03-26T05:19:57.997Z,98083.75
2023-03-26T05:22:24.840Z,98099.84
2023-03-26T05:24:52.161Z,98088.88
2023-03-26T05:27:22.163Z,98088.69
2023-03-26T05:29:49.041Z,98082.66
2023-03-26T05:32:15.907Z,98070.56
2023-03-26T05:34:42.743Z,98065.19
2023-03-26T05:37:09.554Z,98050.59
2023-03-26T05:39:36.362Z,98046.00
2023-03-26T05:42:03.978Z,98052.06
2023-03-26T05:44:30.920Z,98051.16
2023-03-26T05:46:57.726Z,98056.34
2023-03-26T05:49:24.527Z,98056.34
2023-03-26T05:51:52.392Z,98038.88
2023-03-26T05:54:20.083Z,98043.19
2023-03-26T05:56:47.013Z,98048.66
2023-03-26T05:59:16.861Z,98035.53
2023-03-26T06:01:44.945Z,98020.13
2023-03-26T06:04:17.428Z,98026.94
2023-03-26T06:06:44.935Z,98010.97
2023-03-26T06:09:14.675Z,98022.16
2023-03-26T06:11:41.854Z,98006.13
2023-03-26T06:14:08.683Z,98002.56
2023-03-26T06:16:35.564Z,97984.84
2023-03-26T06:19:02.446Z,97965.16
2023-03-26T06:21:29.707Z,97963.97
2023-03-26T06:23:56.620Z,97953.63
2023-03-26T06:26:23.526Z,97967.44
2023-03-26T06:28:50.351Z,97964.56
2023-03-26T06:31:19.161Z,97955.56
2023-03-26T06:33:46.936Z,97930.88
2023-03-26T06:36:13.897Z,97949.84
2023-03-26T06:38:40.812Z,97948.53
2023-03-26T06:41:07.780Z,97927.56
2023-03-26T06:43:36.140Z,97947.25
2023-03-26T06:46:04.442Z,97940.28
2023-03-26T06:48:31.679Z,97915.94
2023-03-26T06:50:58.493Z,97897.47
2023-03-26T06:53:25.565Z,97935.66
2023-03-26T06:55:54.252Z,97919.53
2023-03-26T06:58:21.836Z,97903.16
2023-03-26T07:00:48.848Z,97892.09
2023-03-26T07:03:17.238Z,97908.69
2023-03-26T07:05:44.132Z,97903.22
2023-03-26T07:08:11.020Z,97920.31
2023-03-26T07:10:37.821Z,97895.75
2023-03-26T07:13:04.618Z,97885.03
2023-03-26T07:15:31.480Z,97876.34
2023-03-26T07:17:58.487Z,97882.78
2023-03-26T07:20:25.708Z,97867.63
2023-03-26T07:22:53.054Z,97880.94
2023-03-26T07:25:20.516Z,97864.13
2023-03-26T07:28:12.306Z,97869.53
2023-03-26T07:31:01.281Z,97852.75
2023-03-26T07:34:13.224Z,97858.38
2023-03-26T07:36:57.809Z,97841.38
2023-03-26T07:39:52.619Z,97847.81
2023-03-26T07:42:22.138Z,97851.16
2023-03-26T07:45:34.108Z,97827.50
2023-03-26T07:48:02.132Z,97845.13
2023-03-26T07:50:29.055Z,97808.88
2023-03-26T07:52:56.179Z,97832.72
2023-03-26T07:55:23.259Z,97822.16
2023-03-26T07:58:15.581Z,97831.09
2023-03-26T08:00:51.424Z,97821.53
2023-03-26T08:03:53.536Z,97821.44
2023-03-26T08:06:31.521Z,97815.56
2023-03-26T08:09:35.629Z,97795.03
2023-03-26T08:12:27.347Z,97813.66
2023-03-26T08:15:29.150Z,97782.72
2023-03-26T08:18:35.646Z,97796.69
2023-03-26T08:21:27.237Z,97808.94
2023-03-26T08:24:26.831Z,97803.78
2023-03-26T08:27:32.341Z,97796.91
2023-03-26T08:30:26.602Z,97802.09
2023-03-26T08:32:58.275Z,97799.59
2023-03-26T08:35:27.565Z,97799.59
2023-03-26T08:37:54.754Z,97756.00
2023-03-26T08:40:52.561Z,97786.56
2023-03-26T08:43:41.114Z,97776.94
2023-03-26T08:46:43.108Z,97773.72
2023-03-26T08:49:53.211Z,97767.53
2023-03-26T08:53:03.362Z,97765.66
2023-03-26T08:55:51.809Z,97771.03
2023-03-26T08:58:56.062Z,97761.41
2023-03-26T09:01:53.202Z,97767.44
2023-03-26T09:04:39.468Z,97776.00
2023-03-26T09:07:36.516Z,97774.16
2023-03-26T09:10:32.245Z,97781.69
2023-03-26T09:13:34.753Z,97768.56
2023-03-26T09:16:32.506Z,97759.75
2023-03-26T09:19:41.250Z,97757.28
2023-03-26T09:22:42.735Z,97776.88
2023-03-26T09:25:30.484Z,97788.25
2023-03-26T09:28:25.747Z,97787.16
2023-03-26T09:31:15.177Z,97749.28
2023-03-26T09:34:24.963Z,97765.84
2023-03-26T09:37:18.766Z,97757.56
2023-03-26T09:39:56.059Z,97766.91
2023-03-26T09:42:49.810Z,97727.31
2023-03-26T09:46:15.554Z,97746.41
2023-03-26T09:49:22.745Z,97746.72
2023-03-26T09:52:08.946Z,97747.75
2023-03-26T09:55:02.535Z,97753.88
2023-03-26T09:57:53.774Z,97745.16
2023-03-26T10:01:05.506Z,97733.78
2023-03-26T10:03:56.420Z,97737.56
2023-03-26T10:06:39.630Z,97732.28
2023-03-26T10:09:18.622Z,97739.31
2023-03-26T10:12:09.429Z,97737.44
2023-03-26T10:14:52.733Z,97700.41
2023-03-26T10:17:48.885Z,97733.19
2023-03-26T10:21:01.684Z,97739.38
2023-03-26T10:23:46.203Z,97730.19
2023-03-26T10:27:10.037Z,97724.28
2023-03-26T10:30:18.173Z,97727.25
2023-03-26T10:33:15.386Z,97726.44
2023-03-26T10:36:32.835Z,97725.44
2023-03-26T10:39:37.069Z,97730.25
2023-03-26T10:42:43.854Z,97716.25
2023-03-26T10:45:46.660Z,97705.41
2023-03-26T10:49:06.164Z,97688.88
2023-03-26T10:51:41.216Z,97710.41
2023-03-26T10:54:23.257Z,97715.13
2023-03-26T10:56:52.301Z,97715.63
2023-03-26T10:59:19.524Z,97709.09
2023-03-26T11:02:29.739Z,97727.22
2023-03-26T11:05:33.254Z,97714.78
2023-03-26T11:08:47.934Z,97734.28
2023-03-26T11:11:26.012Z,97730.31
2023-03-26T11:14:00.667Z,97736.81
2023-03-26T11:16:56.937Z,97739.28
2023-03-26T11:19:53.201Z,97757.00
2023-03-26T11:22:48.606Z,97702.81
2023-03-26T11:25:52.758Z,97724.34
2023-03-26T11:29:02.961Z,97710.56
2023-03-26T11:32:06.154Z,97712.34
2023-03-26T11:34:52.609Z,97702.53
2023-03-26T11:37:35.393Z,97701.38
2023-03-26T11:40:12.766Z,97716.63
2023-03-26T11:42:41.211Z,97706.72
2023-03-26T11:45:21.586Z,97685.13
2023-03-26T11:48:03.978Z,97682.91
2023-03-26T11:50:36.193Z,97695.53
2023-03-26T11:53:12.936Z,97691.28
2023-03-26T11:55:46.715Z,97700.50
2023-03-26T11:58:33.848Z,97696.56
2023-03-26T12:01:06.522Z,97667.19
2023-03-26T12:03:33.812Z,97663.53
2023-03-26T12:06:02.725Z,97677.09
2023-03-26T12:08:39.391Z,97674.50
2023-03-26T12:11:10.995Z,97674.72
2023-03-26T12:13:43.328Z,97684.63
2023-03-26T12:16:18.918Z,97668.34
2023-03-26T12:18:47.575Z,97672.00
2023-03-26T12:21:18.943Z,97678.13
2023-03-26T12:23:59.839Z,97688.06
2023-03-26T12:26:39.581Z,97677.31
2023-03-26T12:29:20.660Z,97654.75
2023-03-26T12:32:15.280Z,97663.09
2023-03-26T12:34:42.186Z,97643.06
2023-03-26T12:37:38.523Z,97663.59
2023-03-26T12:40:27.902Z,97688.63
2023-03-26T12:44:50.757Z,97659.91
2023-03-26T12:47:46.216Z,97642.56
2023-03-26T12:48:43.094Z,97654.59
2023-03-26T12:51:29.438Z,97631.13
2023-03-26T12:54:09.904Z,97630.44
2023-03-26T12:56:43.262Z,97649.28
2023-03-26T12:59:37.080Z,97646.66
2023-03-26T13:02:41.242Z,97638.59
2023-03-26T13:05:54.597Z,97632.25
2023-03-26T13:08:24.015Z,97623.00
2023-03-26T13:11:17.929Z,97624.16
2023-03-26T13:14:14.230Z,97595.16
2023-03-26T13:17:00.010Z,97595.38
2023-03-26T13:20:12.092Z,97610.00
2023-03-26T13:22:55.346Z,97598.50
2023-03-26T13:25:42.615Z,97605.63
2023-03-26T13:28:37.573Z,97578.47
2023-03-26T13:31:22.411Z,97586.47
2023-03-26T13:34:08.780Z,97588.34
2023-03-26T13:36:58.576Z,97587.66
2023-03-26T13:40:10.263Z,97584.91
2023-03-26T13:43:04.972Z,97572.75
2023-03-26T13:46:21.259Z,97565.38
2023-03-26T13:48:59.193Z,97573.44
2023-03-26T13:51:49.093Z,97564.66
2023-03-26T13:54:18.680Z,97565.63
2023-03-26T13:57:04.863Z,97544.09
2023-03-26T13:59:40.637Z,97555.22
2023-03-26T14:02:23.163Z,97550.84
2023-03-26T14:04:56.893Z,97514.50
2023-03-26T14:07:53.370Z,97549.44
2023-03-26T14:10:25.807Z,97544.97
2023-03-26T14:13:24.239Z,97534.94
2023-03-26T14:16:01.390Z,97516.34
2023-03-26T14:18:56.825Z,97538.94
2023-03-26T14:21:55.851Z,97543.94
2023-03-26T14:24:48.503Z,97553.50
2023-03-26T14:27:54.355Z,97547.66
2023-03-26T14:30:56.455Z,97557.81
2023-03-26T14:33:53.539Z,97542.38
2023-03-26T14:37:07.787Z,97570.34
2023-03-26T14:39:37.406Z,97593.19
2023-03-26T14:42:32.757Z,97598.22
2023-03-26T14:45:26.218Z,97602.06
2023-03-26T14:48:57.353Z,97622.56
2023-03-26T14:51:35.522Z,97608.84
2023-03-26T14:54:17.283Z,97630.69
2023-03-26T14:56:49.739Z,97668.09
2023-03-26T15:00:15.508Z,97652.25
2023-03-26T15:03:09.871Z,97631.69
2023-03-26T15:06:07.575Z,97629.28
2023-03-26T15:08:56.217Z,97639.47
2023-03-26T15:11:40.951Z,97614.13
2023-03-26T15:14:48.893Z,97650.94
2023-03-26T15:17:40.992Z,97650.94
2023-03-26T15:20:32.645Z,97654.03
2023-03-26T15:23:27.046Z,97651.91
2023-03-26T15:26:30.961Z,97649.44
2023-03-26T15:29:48.089Z,97644.34
2023-03-26T15:33:12.806Z,97651.41
2023-03-26T15:36:00.441Z,97651.66
2023-03-26T15:39:11.644Z,97652.94
2023-03-26T15:42:15.497Z,97659.31
2023-03-26T15:45:15.014Z,97667.41
2023-03-26T15:47:56.033Z,97667.25
2023-03-26T15:50:38.080Z,97672.56
2023-03-26T15:53:45.125Z,97685.94
2023-03-26T15:56:40.282Z,97686.50
2023-03-26T15:59:23.359Z,97678.47
2023-03-26T16:02:11.979Z,97671.78
2023-03-26T16:05:21.242Z,97675.28
2023-03-26T16:08:47.126Z,97682.16
2023-03-26T16:11:15.422Z,97688.19
2023-03-26T16:13:49.875Z,97702.78
2023-03-26T16:16:23.242Z,97689.09
2023-03-26T16:18:58.415Z,97681.31
2023-03-26T16:21:36.595Z,97682.59
2023-03-26T16:24:03.341Z,97677.59
2023-03-26T16:27:00.492Z,97686.00
2023-03-26T16:29:31.365Z,97688.28
2023-03-26T16:32:10.378Z,97706.00
2023-03-26T16:34:41.946Z,97714.81
2023-03-26T16:37:36.837Z,97718.75
2023-03-26T16:40:22.223Z,97710.38
2023-03-26T16:43:10.260Z,97714.91
2023-03-26T16:46:03.382Z,97686.13
2023-03-26T16:48:41.585Z,97719.28
2023-03-26T16:51:39.080Z,97721.75
2023-03-26T16:54:34.613Z,97715.75
2023-03-26T16:57:27.905Z,97730.44
2023-03-26T17:00:23.513Z,97724.97
2023-03-26T17:03:28.240Z,97734.50
2023-03-26T17:05:56.530Z,97742.97
2023-03-26T17:09:02.797Z,97741.00
2023-03-26T17:12:01.190Z,97754.88
2023-03-26T17:15:12.687Z,97749.25
2023-03-26T17:18:02.269Z,97732.94
2023-03-26T17:21:13.939Z,97756.72
2023-03-26T17:24:15.656Z,97762.91
2023-03-26T17:27:24.919Z,97732.06
2023-03-26T17:30:04.989Z,97755.44
2023-03-26T17:32:58.840Z,97750.25
2023-03-26T17:35:45.147Z,97753.38
2023-03-26T17:38:17.684Z,97754.06
2023-03-26T17:40:55.296Z,97745.50
2023-03-26T17:43:51.633Z,97742.13
2023-03-26T17:46:37.977Z,97730.53
2023-03-26T17:49:21.318Z,97746.72
2023-03-26T17:52:11.857Z,97750.31
2023-03-26T17:54:45.234Z,97753.38
2023-03-26T17:57:23.588Z,97743.41
2023-03-26T17:59:56.480Z,97741.53
2023-03-26T18:02:42.066Z,97734.72
2023-03-26T18:05:15.448Z,97741.75
2023-03-26T18:08:18.727Z,97745.44
2023-03-26T18:11:23.149Z,97747.50
2023-03-26T18:13:55.505Z,97754.44
2023-03-26T18:16:31.668Z,97753.41
2023-03-26T18:19:01.561Z,97741.50
2023-03-26T18:21:37.060Z,97762.22
2023-03-26T18:24:07.764Z,97761.81
2023-03-26T18:26:47.130Z,97746.66
2023-03-26T18:29:25.333Z,97759.50
2023-03-26T18:32:00.391Z,97776.53
2023-03-26T18:34:32.009Z,97782.97
2023-03-26T18:37:01.621Z,97777.69
2023-03-26T18:39:28.676Z,97759.25
2023-03-26T18:41:55.922Z,97770.13
2023-03-26T18:44:22.806Z,97769.31
2023-03-26T18:46:54.756Z,97753.88
2023-03-26T18:49:23.936Z,97768.53
2023-03-26T18:51:57.326Z,97750.09
2023-03-26T18:54:30.919Z,97752.69
2023-03-26T18:56:58.865Z,97759.97
2023-03-26T18:59:31.813Z,97750.09
2023-03-26T19:02:13.931Z,97760.97
2023-03-26T19:04:46.146Z,97761.41
2023-03-26T19:07:16.853Z,97758.00
2023-03-26T19:09:44.712Z,97766.09
2023-03-26T19:12:32.971Z,97760.50
2023-03-26T19:15:16.363Z,97710.38
2023-03-26T19:17:51.326Z,97750.88
2023-03-26T19:20:26.371Z,97766.66
2023-03-26T19:22:55.192Z,97748.91
2023-03-26T19:25:42.104Z,97764.47
2023-03-26T19:28:32.733Z,97756.69
2023-03-26T19:31:12.413Z,97757.09
2023-03-26T19:33:44.385Z,97735.09
2023-03-26T19:36:20.002Z,97759.34
2023-03-26T19:38:57.459Z,97732.53
2023-03-26T19:41:36.751Z,97746.50
2023-03-26T19:44:25.860Z,97738.47
2023-03-26T19:47:01.793Z,97736.38
2023-03-26T19:49:42.225Z,97727.34
2023-03-26T19:52:16.634Z,97744.03
2023-03-26T19:55:22.436Z,97749.41
2023-03-26T19:57:49.278Z,97738.81
2023-03-26T20:00:16.379Z,97748.25
2023-03-26T20:02:46.412Z,97731.88
2023-03-26T20:05:23.721Z,97729.28
2023-03-26T20:07:51.294Z,97730.94
2023-03-26T20:10:18.843Z,97731.69
2023-03-26T20:12:45.740Z,97724.28
2023-03-26T20:15:25.276Z,97710.56
2023-03-26T20:17:55.546Z,97696.84
2023-03-26T20:20:27.568Z,97716.41
2023-03-26T20:22:54.963Z,97711.97
2023-03-26T20:25:31.198Z,97726.44
2023-03-26T20:27:59.032Z,97732.81
2023-03-26T20:30:37.571Z,97722.88
2023-03-26T20:33:12.027Z,97706.31
2023-03-26T20:35:40.570Z,97727.66
2023-03-26T20:38:09.589Z,97727.06
2023-03-26T20:40:37.342Z,97732.03
2023-03-26T20:43:04.404Z,97733.94
2023-03-26T20:45:31.207Z,97731.72
2023-03-26T20:47:59.383Z,97705.25
2023-03-26T20:50:26.665Z,97726.16
2023-03-26T20:52:54.309Z,97736.84
2023-03-26T20:55:21.477Z,97732.81
2023-03-26T20:57:48.881Z,97720.28
2023-03-26T21:00:26.852Z,97733.00
2023-03-26T21:02:56.463Z,97722.03
2023-03-26T21:05:27.046Z,97738.22
2023-03-26T21:07:57.434Z,97733.78
2023-03-26T21:10:27.198Z,97718.47
2023-03-26T21:13:04.346Z,97739.66
2023-03-26T21:15:31.836Z,97738.19
2023-03-26T21:17:59.259Z,97724.00
2023-03-26T21:20:32.646Z,97725.56
2023-03-26T21:23:23.165Z,97743.78
2023-03-26T21:26:06.278Z,97746.31
2023-03-26T21:28:48.833Z,97739.56
2023-03-26T21:31:28.458Z,97721.25
2023-03-26T21:33:56.793Z,97719.38
2023-03-26T21:36:24.050Z,97707.94
2023-03-26T21:38:54.621Z,97733.28
2023-03-26T21:41:24.371Z,97736.34
2023-03-26T21:43:51.750Z,97714.16
2023-03-26T21:46:19.031Z,97724.03
2023-03-26T21:48:46.185Z,97726.97
2023-03-26T21:51:14.859Z,97729.56
2023-03-26T21:53:43.011Z,97729.09
2023-03-26T21:56:45.959Z,97722.91
2023-03-26T21:59:26.683Z,97738.06
2023-03-26T22:02:17.803Z,97734.38
2023-03-26T22:05:01.481Z,97731.06
2023-03-26T22:07:58.858Z,97721.63
2023-03-26T22:10:25.843Z,97717.59
2023-03-26T22:12:52.742Z,97728.06
2023-03-26T22:15:19.974Z,97715.91
2023-03-26T22:17:53.903Z,97728.69
2023-03-26T22:20:24.892Z,97735.34
2023-03-26T22:22:53.371Z,97707.13
2023-03-26T22:25:22.172Z,97739.38
2023-03-26T22:27:51.220Z,97746.88
2023-03-26T22:30:20.346Z,97714.50
2023-03-26T22:32:47.466Z,97753.25
2023-03-26T22:35:14.683Z,97753.53
2023-03-26T22:37:41.656Z,97757.69
2023-03-26T22:40:12.942Z,97765.72
2023-03-26T22:42:41.300Z,97768.94
2023-03-26T22:45:11.881Z,97757.88
2023-03-26T22:47:40.004Z,97771.09
2023-03-26T22:50:09.107Z,97756.69
2023-03-26T22:52:36.965Z,97747.28
2023-03-26T22:55:05.293Z,97768.66
2023-03-26T22:57:32.188Z,97781.41
2023-03-26T23:00:07.794Z,97775.13
2023-03-26T23:02:35.274Z,97774.22
2023-03-26T23:05:02.181Z,97773.03
2023-03-26T23:07:29.015Z,97776.41
2023-03-26T23:09:55.824Z,97789.06
2023-03-26T23:12:22.646Z,97767.94
2023-03-26T23:14:52.815Z,97777.53
2023-03-26T23:17:20.145Z,97779.28
2023-03-26T23:19:47.098Z,97786.38
2023-03-26T23:22:13.909Z,97798.75
2023-03-26T23:24:40.757Z,97803.91
2023-03-26T23:27:07.783Z,97802.44
2023-03-26T23:29:36.442Z,97797.84
2023-03-26T23:32:03.365Z,97806.34
2023-03-26T23:34:51.818Z,97788.78
2023-03-26T23:37:23.007Z,97815.16
2023-03-26T23:39:51.447Z,97826.59
2023-03-26T23:42:28.902Z,97827.44
2023-03-26T23:44:57.319Z,97815.25
2023-03-26T23:47:24.657Z,97831.47
2023-03-26T23:49:51.584Z,97814.25
2023-03-26T23:52:18.766Z,97833.97
2023-03-26T23:54:45.766Z,97820.41
2023-03-26T23:57:12.852Z,97834.81
2023-03-26T23:59:41.454Z,97844.38
